Seajourney — V7OW5 — position and weather

sailwx.info

Track history (hours):
 
Tides and Currents Weather Stations Pressure Air Temp Water Temp Dewpoint Dewpoint Depression Visibility Wind Speed Wind Dir Waves Ship Positions

Seajourney

Last reported at 2017-Nov-12 21:46 UTC. Time now 2017-Nov-23 15:20 UTC.
Position N 32°14' W 014°40'.
Warning: this ship's position is 10 days out of date.

Length 229 m; draft 12.7 m.

Type: Cargo ship. MMSI: 538006596.

Date/timePositionNaut miles runAvg speedWind from/ knotsBaromVisibWave heightAir tempDewpointWater temp
2017-Nov-12 21:46N 32°14' W 014°40'8410.3
2017-Nov-12 13:34N 30°51' W 014°54'110.4
2017-Nov-12 13:28N 30°50' W 014°54'810.3
2017-Nov-12 12:41N 30°42' W 014°55'210.2
2017-Nov-12 12:30N 30°40' W 014°55'510.1
2017-Nov-12 12:00N 30°35' W 014°56'5 9.9
2017-Nov-12 11:30N 30°30' W 014°57'510.1
2017-Nov-12 11:00N 30°25' W 014°58'510.2
2017-Nov-12 10:30N 30°20' W 014°59'2110.1
2017-Nov-12 08:26N 29°59' W 015°02'410.1
2017-Nov-12 08:00N 29°55' W 015°03'510.3
2017-Nov-12 07:30N 29°50' W 015°03'510.3
2017-Nov-12 07:00N 29°45' W 015°04'510.2
2017-Nov-12 06:30N 29°40' W 015°05'510.3
2017-Nov-12 06:00N 29°35' W 015°06'510.2
2017-Nov-12 05:30N 29°30' W 015°07'510.1
2017-Nov-12 05:00N 29°25' W 015°07'510.0
2017-Nov-12 04:30N 29°20' W 015°08'5 9.9
2017-Nov-12 04:00N 29°15' W 015°09'510.0
2017-Nov-12 03:30N 29°10' W 015°10'510.1
2017-Nov-12 03:00N 29°05' W 015°11'510.1
2017-Nov-12 02:30N 28°60' W 015°11'5 9.9
2017-Nov-12 02:00N 28°55' W 015°12'5 9.7
2017-Nov-12 01:30N 28°50' W 015°13'5 9.7
2017-Nov-12 01:00N 28°45' W 015°13'5 9.7
2017-Nov-12 00:30N 28°40' W 015°15'5 9.9
2017-Nov-12 00:00N 28°36' W 015°15'510.0
2017-Nov-11 23:30N 28°31' W 015°16'5 9.9
2017-Nov-11 23:00N 28°26' W 015°17'510.1
2017-Nov-11 22:30N 28°21' W 015°18'510.1
2017-Nov-11 22:00N 28°16' W 015°18'510.0
2017-Nov-11 21:30N 28°11' W 015°19'4 8.9
2017-Nov-11 21:00N 28°07' W 015°22'2 4.2
2017-Nov-11 20:29N 28°07' W 015°25'0 0.0
2017-Nov-11 19:59N 28°07' W 015°25'0 0.1
2017-Nov-11 19:20N 28°08' W 015°25'0 0.0
2017-Nov-11 18:47N 28°08' W 015°25'0 0.1
2017-Nov-11 18:20N 28°08' W 015°25'0 0.0
2017-Nov-11 17:53N 28°07' W 015°25'0 0.0
2017-Nov-11 17:23N 28°08' W 015°25'0 0.0
2017-Nov-11 16:53N 28°08' W 015°25'0 0.0
2017-Nov-11 16:23N 28°08' W 015°25'0 0.0
2017-Nov-11 15:53N 28°08' W 015°25'0 0.0
2017-Nov-11 15:23N 28°08' W 015°25'0 0.0
2017-Nov-11 14:56N 28°08' W 015°25'0 0.0
2017-Nov-11 14:26N 28°08' W 015°25'0 0.0
2017-Nov-11 13:56N 28°08' W 015°25'0 0.0
2017-Nov-11 13:26N 28°08' W 015°25'0 0.0
2017-Nov-11 12:59N 28°07' W 015°25'0 0.1
2017-Nov-11 12:29N 28°08' W 015°25'0 0.2
2017-Nov-11 11:59N 28°07' W 015°25'0 0.3
2017-Nov-11 11:29N 28°07' W 015°25'0 0.2
2017-Nov-11 10:59N 28°07' W 015°25'1 3.0
2017-Nov-11 10:30N 28°07' W 015°23'1 2.7
2017-Nov-11 10:00N 28°05' W 015°23'1 0.7
2017-Nov-11 09:17N 28°05' W 015°24'0 0.1
2017-Nov-11 08:50N 28°05' W 015°24'0 0.1
2017-Nov-11 08:29N 28°05' W 015°24'0 0.0
2017-Nov-11 07:59N 28°05' W 015°24'0 0.0
2017-Nov-11 07:29N 28°05' W 015°24'0 0.0
2017-Nov-11 06:59N 28°05' W 015°24'0 0.1
2017-Nov-11 06:23N 28°05' W 015°24'0 0.0
2017-Nov-11 05:53N 28°05' W 015°24'0 0.0
2017-Nov-11 05:23N 28°05' W 015°24'0 0.0
2017-Nov-11 04:53N 28°05' W 015°24'0 0.0
2017-Nov-11 04:23N 28°05' W 015°24'0 0.0
2017-Nov-11 03:53N 28°05' W 015°24'0 0.0
2017-Nov-11 03:23N 28°05' W 015°24'0 0.0
2017-Nov-11 02:59N 28°05' W 015°24'0 0.1
2017-Nov-11 02:29N 28°05' W 015°24'0 0.0
2017-Nov-11 01:56N 28°05' W 015°24'0 0.0
2017-Nov-11 01:26N 28°05' W 015°24'0 0.0
2017-Nov-11 00:53N 28°05' W 015°24'0 0.1
2017-Nov-11 00:29N 28°05' W 015°24'0 0.1
2017-Nov-10 23:59N 28°05' W 015°24'0 0.0
2017-Nov-10 23:29N 28°05' W 015°24'0 0.0
2017-Nov-10 22:59N 28°05' W 015°24'0 0.1
2017-Nov-10 22:29N 28°05' W 015°24'0 0.0
2017-Nov-10 21:59N 28°05' W 015°24'0 0.1
2017-Nov-10 21:29N 28°05' W 015°24'0 0.0
2017-Nov-10 20:59N 28°05' W 015°24'0 0.0
2017-Nov-10 20:29N 28°05' W 015°24'0 0.0
2017-Nov-10 19:59N 28°05' W 015°24'0 0.0
2017-Nov-10 19:29N 28°05' W 015°24'0 0.0
2017-Nov-10 18:59N 28°05' W 015°24'0 0.0
2017-Nov-10 18:29N 28°05' W 015°24'0 0.0
2017-Nov-10 17:59N 28°05' W 015°24'0 0.0
2017-Nov-10 17:20N 28°05' W 015°24'0 0.0
2017-Nov-10 16:50N 28°05' W 015°24'0 0.0
2017-Nov-10 16:05N 28°05' W 015°24'0 0.2
2017-Nov-10 15:53N 28°05' W 015°24'0 0.0
2017-Nov-10 15:23N 28°05' W 015°24'0 0.0
2017-Nov-10 14:53N 28°05' W 015°24'0 0.0
2017-Nov-10 14:23N 28°05' W 015°24'0 0.0
2017-Nov-10 13:53N 28°05' W 015°24'0 0.0
2017-Nov-10 13:20N 28°05' W 015°24'0 0.1
2017-Nov-10 12:56N 28°05' W 015°24'0 0.0
2017-Nov-10 12:26N 28°05' W 015°24'0 0.0
2017-Nov-10 11:56N 28°05' W 015°24'0 0.1
2017-Nov-10 11:23N 28°05' W 015°24'0 0.0
2017-Nov-10 10:56N 28°05' W 015°24'0 0.0
2017-Nov-10 10:23N 28°05' W 015°24'0 0.1
2017-Nov-10 09:59N 28°05' W 015°24'0 0.0
2017-Nov-10 09:29N 28°05' W 015°24'0 0.0
2017-Nov-10 08:59N 28°05' W 015°24'0 0.0
2017-Nov-10 08:29N 28°05' W 015°24'0 0.0
2017-Nov-10 07:56N 28°05' W 015°24'0 0.0
2017-Nov-10 07:29N 28°05' W 015°24'0 0.0
2017-Nov-10 06:59N 28°05' W 015°24'0 0.0
2017-Nov-10 06:29N 28°05' W 015°24'0 0.0
2017-Nov-10 05:59N 28°05' W 015°24'0 0.0
2017-Nov-10 05:29N 28°05' W 015°24'0 0.1
2017-Nov-10 04:50N 28°05' W 015°24'0 0.0
2017-Nov-10 04:29N 28°05' W 015°24'0 0.0
2017-Nov-10 03:59N 28°05' W 015°24'0 0.0
2017-Nov-10 03:29N 28°05' W 015°24'0 0.1
2017-Nov-10 02:50N 28°05' W 015°24'0 0.0
2017-Nov-10 02:20N 28°05' W 015°24'0 0.0
2017-Nov-10 01:53N 28°05' W 015°24'0 0.0
2017-Nov-10 01:23N 28°05' W 015°24'0 0.0
2017-Nov-10 00:53N 28°05' W 015°24'0 0.0
2017-Nov-10 00:20N 28°05' W 015°24'0 0.1
2017-Nov-09 23:53N 28°05' W 015°24'0 0.0
2017-Nov-09 23:23N 28°05' W 015°24'0 0.1
2017-Nov-09 22:56N 28°05' W 015°24'0 0.1
2017-Nov-09 22:26N 28°05' W 015°24'0 0.0
2017-Nov-09 21:56N 28°05' W 015°24'0 0.0
2017-Nov-09 21:26N 28°05' W 015°24'0 0.0
2017-Nov-09 20:53N 28°05' W 015°24'0 0.0
2017-Nov-09 20:26N 28°05' W 015°24'0 0.0
2017-Nov-09 19:56N 28°05' W 015°24'0 0.0
2017-Nov-09 19:29N 28°05' W 015°24'0 0.0
2017-Nov-09 18:59N 28°05' W 015°24'0 0.0
2017-Nov-09 18:29N 28°05' W 015°24'0 0.0
2017-Nov-09 17:56N 28°05' W 015°24'0 0.0
2017-Nov-09 17:17N 28°05' W 015°24'0 0.0
2017-Nov-09 16:59N 28°05' W 015°24'0 0.0
2017-Nov-09 16:29N 28°05' W 015°24'0 0.0
2017-Nov-09 15:59N 28°05' W 015°24'0 0.0
2017-Nov-09 15:29N 28°05' W 015°24'0 0.0
2017-Nov-09 14:59N 28°05' W 015°24'0 0.0
2017-Nov-09 14:29N 28°05' W 015°24'0 0.1
2017-Nov-09 13:50N 28°05' W 015°24'0 0.0
2017-Nov-09 13:20N 28°05' W 015°24'0 0.1
2017-Nov-09 12:50N 28°05' W 015°24'0 1.4
2017-Nov-09 12:30N 28°05' W 015°23'2 3.6
2017-Nov-09 12:00N 28°07' W 015°22'0 0.8
2017-Nov-09 11:30N 28°07' W 015°22'0 0.6
2017-Nov-09 11:00N 28°07' W 015°22'1 1.0
2017-Nov-09 10:30N 28°07' W 015°21'1 1.6
2017-Nov-09 10:00N 28°06' W 015°21'4 7.4
2017-Nov-09 09:30N 28°03' W 015°19'4 7.2
2017-Nov-09 09:00N 28°01' W 015°16'4 7.0
2017-Nov-09 08:30N 27°57' W 015°15'3 6.7
2017-Nov-09 08:00N 27°54' W 015°14'3 6.8
2017-Nov-09 07:30N 27°51' W 015°14'4 8.0
2017-Nov-09 07:00N 27°47' W 015°16'5 9.2
2017-Nov-09 06:30N 27°43' W 015°18'  
Track history (hours):
 
Tides and Currents Weather Stations Pressure Air Temp Water Temp Dewpoint Dewpoint Depression Visibility Wind Speed Wind Dir Waves Ship Positions

Seajourney

Last reported at 2017-Nov-12 21:46 UTC. Time now 2017-Nov-23 15:20 UTC.
Position N 32°14' W 014°40'.
Warning: this ship's position is 10 days out of date.

Length 229 m; draft 12.7 m.

Type: Cargo ship. MMSI: 538006596.

Date/timePositionNaut miles runAvg speedWind from/ knotsBaromVisibWave heightAir tempDewpointWater temp
2017-Nov-12 21:46N 32°14' W 014°40'8410.3
2017-Nov-12 13:34N 30°51' W 014°54'110.4
2017-Nov-12 13:28N 30°50' W 014°54'810.3
2017-Nov-12 12:41N 30°42' W 014°55'210.2
2017-Nov-12 12:30N 30°40' W 014°55'510.1
2017-Nov-12 12:00N 30°35' W 014°56'5 9.9
2017-Nov-12 11:30N 30°30' W 014°57'510.1
2017-Nov-12 11:00N 30°25' W 014°58'510.2
2017-Nov-12 10:30N 30°20' W 014°59'2110.1
2017-Nov-12 08:26N 29°59' W 015°02'410.1
2017-Nov-12 08:00N 29°55' W 015°03'510.3
2017-Nov-12 07:30N 29°50' W 015°03'510.3
2017-Nov-12 07:00N 29°45' W 015°04'510.2
2017-Nov-12 06:30N 29°40' W 015°05'510.3
2017-Nov-12 06:00N 29°35' W 015°06'510.2
2017-Nov-12 05:30N 29°30' W 015°07'510.1
2017-Nov-12 05:00N 29°25' W 015°07'510.0
2017-Nov-12 04:30N 29°20' W 015°08'5 9.9
2017-Nov-12 04:00N 29°15' W 015°09'510.0
2017-Nov-12 03:30N 29°10' W 015°10'510.1
2017-Nov-12 03:00N 29°05' W 015°11'510.1
2017-Nov-12 02:30N 28°60' W 015°11'5 9.9
2017-Nov-12 02:00N 28°55' W 015°12'5 9.7
2017-Nov-12 01:30N 28°50' W 015°13'5 9.7
2017-Nov-12 01:00N 28°45' W 015°13'5 9.7
2017-Nov-12 00:30N 28°40' W 015°15'5 9.9
2017-Nov-12 00:00N 28°36' W 015°15'510.0
2017-Nov-11 23:30N 28°31' W 015°16'5 9.9
2017-Nov-11 23:00N 28°26' W 015°17'510.1
2017-Nov-11 22:30N 28°21' W 015°18'510.1
2017-Nov-11 22:00N 28°16' W 015°18'510.0
2017-Nov-11 21:30N 28°11' W 015°19'4 8.9
2017-Nov-11 21:00N 28°07' W 015°22'2 4.2
2017-Nov-11 20:29N 28°07' W 015°25'0 0.0
2017-Nov-11 19:59N 28°07' W 015°25'0 0.1
2017-Nov-11 19:20N 28°08' W 015°25'0 0.0
2017-Nov-11 18:47N 28°08' W 015°25'0 0.1
2017-Nov-11 18:20N 28°08' W 015°25'0 0.0
2017-Nov-11 17:53N 28°07' W 015°25'0 0.0
2017-Nov-11 17:23N 28°08' W 015°25'0 0.0
2017-Nov-11 16:53N 28°08' W 015°25'0 0.0
2017-Nov-11 16:23N 28°08' W 015°25'0 0.0
2017-Nov-11 15:53N 28°08' W 015°25'0 0.0
2017-Nov-11 15:23N 28°08' W 015°25'0 0.0
2017-Nov-11 14:56N 28°08' W 015°25'0 0.0
2017-Nov-11 14:26N 28°08' W 015°25'0 0.0
2017-Nov-11 13:56N 28°08' W 015°25'0 0.0
2017-Nov-11 13:26N 28°08' W 015°25'0 0.0
2017-Nov-11 12:59N 28°07' W 015°25'0 0.1
2017-Nov-11 12:29N 28°08' W 015°25'0 0.2
2017-Nov-11 11:59N 28°07' W 015°25'0 0.3
2017-Nov-11 11:29N 28°07' W 015°25'0 0.2
2017-Nov-11 10:59N 28°07' W 015°25'1 3.0
2017-Nov-11 10:30N 28°07' W 015°23'1 2.7
2017-Nov-11 10:00N 28°05' W 015°23'1 0.7
2017-Nov-11 09:17N 28°05' W 015°24'0 0.1
2017-Nov-11 08:50N 28°05' W 015°24'0 0.1
2017-Nov-11 08:29N 28°05' W 015°24'0 0.0
2017-Nov-11 07:59N 28°05' W 015°24'0 0.0
2017-Nov-11 07:29N 28°05' W 015°24'0 0.0
2017-Nov-11 06:59N 28°05' W 015°24'0 0.1
2017-Nov-11 06:23N 28°05' W 015°24'0 0.0
2017-Nov-11 05:53N 28°05' W 015°24'0 0.0
2017-Nov-11 05:23N 28°05' W 015°24'0 0.0
2017-Nov-11 04:53N 28°05' W 015°24'0 0.0
2017-Nov-11 04:23N 28°05' W 015°24'0 0.0
2017-Nov-11 03:53N 28°05' W 015°24'0 0.0
2017-Nov-11 03:23N 28°05' W 015°24'0 0.0
2017-Nov-11 02:59N 28°05' W 015°24'0 0.1
2017-Nov-11 02:29N 28°05' W 015°24'0 0.0
2017-Nov-11 01:56N 28°05' W 015°24'0 0.0
2017-Nov-11 01:26N 28°05' W 015°24'0 0.0
2017-Nov-11 00:53N 28°05' W 015°24'0 0.1
2017-Nov-11 00:29N 28°05' W 015°24'0 0.1
2017-Nov-10 23:59N 28°05' W 015°24'0 0.0
2017-Nov-10 23:29N 28°05' W 015°24'0 0.0
2017-Nov-10 22:59N 28°05' W 015°24'0 0.1
2017-Nov-10 22:29N 28°05' W 015°24'0 0.0
2017-Nov-10 21:59N 28°05' W 015°24'0 0.1
2017-Nov-10 21:29N 28°05' W 015°24'0 0.0
2017-Nov-10 20:59N 28°05' W 015°24'0 0.0
2017-Nov-10 20:29N 28°05' W 015°24'0 0.0
2017-Nov-10 19:59N 28°05' W 015°24'0 0.0
2017-Nov-10 19:29N 28°05' W 015°24'0 0.0
2017-Nov-10 18:59N 28°05' W 015°24'0 0.0
2017-Nov-10 18:29N 28°05' W 015°24'0 0.0
2017-Nov-10 17:59N 28°05' W 015°24'0 0.0
2017-Nov-10 17:20N 28°05' W 015°24'0 0.0
2017-Nov-10 16:50N 28°05' W 015°24'0 0.0
2017-Nov-10 16:05N 28°05' W 015°24'0 0.2
2017-Nov-10 15:53N 28°05' W 015°24'0 0.0
2017-Nov-10 15:23N 28°05' W 015°24'0 0.0
2017-Nov-10 14:53N 28°05' W 015°24'0 0.0
2017-Nov-10 14:23N 28°05' W 015°24'0 0.0
2017-Nov-10 13:53N 28°05' W 015°24'0 0.0
2017-Nov-10 13:20N 28°05' W 015°24'0 0.1
2017-Nov-10 12:56N 28°05' W 015°24'0 0.0
2017-Nov-10 12:26N 28°05' W 015°24'0 0.0
2017-Nov-10 11:56N 28°05' W 015°24'0 0.1
2017-Nov-10 11:23N 28°05' W 015°24'0 0.0
2017-Nov-10 10:56N 28°05' W 015°24'0 0.0
2017-Nov-10 10:23N 28°05' W 015°24'0 0.1
2017-Nov-10 09:59N 28°05' W 015°24'0 0.0
2017-Nov-10 09:29N 28°05' W 015°24'0 0.0
2017-Nov-10 08:59N 28°05' W 015°24'0 0.0
2017-Nov-10 08:29N 28°05' W 015°24'0 0.0
2017-Nov-10 07:56N 28°05' W 015°24'0 0.0
2017-Nov-10 07:29N 28°05' W 015°24'0 0.0
2017-Nov-10 06:59N 28°05' W 015°24'0 0.0
2017-Nov-10 06:29N 28°05' W 015°24'0 0.0
2017-Nov-10 05:59N 28°05' W 015°24'0 0.0
2017-Nov-10 05:29N 28°05' W 015°24'0 0.1
2017-Nov-10 04:50N 28°05' W 015°24'0 0.0
2017-Nov-10 04:29N 28°05' W 015°24'0 0.0
2017-Nov-10 03:59N 28°05' W 015°24'0 0.0
2017-Nov-10 03:29N 28°05' W 015°24'0 0.1
2017-Nov-10 02:50N 28°05' W 015°24'0 0.0
2017-Nov-10 02:20N 28°05' W 015°24'0 0.0
2017-Nov-10 01:53N 28°05' W 015°24'0 0.0
2017-Nov-10 01:23N 28°05' W 015°24'0 0.0
2017-Nov-10 00:53N 28°05' W 015°24'0 0.0
2017-Nov-10 00:20N 28°05' W 015°24'0 0.1
2017-Nov-09 23:53N 28°05' W 015°24'0 0.0
2017-Nov-09 23:23N 28°05' W 015°24'0 0.1
2017-Nov-09 22:56N 28°05' W 015°24'0 0.1
2017-Nov-09 22:26N 28°05' W 015°24'0 0.0
2017-Nov-09 21:56N 28°05' W 015°24'0 0.0
2017-Nov-09 21:26N 28°05' W 015°24'0 0.0
2017-Nov-09 20:53N 28°05' W 015°24'0 0.0
2017-Nov-09 20:26N 28°05' W 015°24'0 0.0
2017-Nov-09 19:56N 28°05' W 015°24'0 0.0
2017-Nov-09 19:29N 28°05' W 015°24'0 0.0
2017-Nov-09 18:59N 28°05' W 015°24'0 0.0
2017-Nov-09 18:29N 28°05' W 015°24'0 0.0
2017-Nov-09 17:56N 28°05' W 015°24'0 0.0
2017-Nov-09 17:17N 28°05' W 015°24'0 0.0
2017-Nov-09 16:59N 28°05' W 015°24'0 0.0
2017-Nov-09 16:29N 28°05' W 015°24'0 0.0
2017-Nov-09 15:59N 28°05' W 015°24'0 0.0
2017-Nov-09 15:29N 28°05' W 015°24'0 0.0
2017-Nov-09 14:59N 28°05' W 015°24'0 0.0
2017-Nov-09 14:29N 28°05' W 015°24'0 0.1
2017-Nov-09 13:50N 28°05' W 015°24'0 0.0
2017-Nov-09 13:20N 28°05' W 015°24'0 0.1
2017-Nov-09 12:50N 28°05' W 015°24'0 1.4
2017-Nov-09 12:30N 28°05' W 015°23'2 3.6
2017-Nov-09 12:00N 28°07' W 015°22'0 0.8
2017-Nov-09 11:30N 28°07' W 015°22'0 0.6
2017-Nov-09 11:00N 28°07' W 015°22'1 1.0
2017-Nov-09 10:30N 28°07' W 015°21'1 1.6
2017-Nov-09 10:00N 28°06' W 015°21'4 7.4
2017-Nov-09 09:30N 28°03' W 015°19'4 7.2
2017-Nov-09 09:00N 28°01' W 015°16'4 7.0
2017-Nov-09 08:30N 27°57' W 015°15'3 6.7
2017-Nov-09 08:00N 27°54' W 015°14'3 6.8
2017-Nov-09 07:30N 27°51' W 015°14'4 8.0
2017-Nov-09 07:00N 27°47' W 015°16'5 9.2
2017-Nov-09 06:30N 27°43' W 015°18'  

Dump ship's entire track history